Terminal Aerodrome Forecast
Issued by NWS Cleveland, OH

Home | Current Version | Previous Version | Graphics & Text | Print | Product List | Glossary On
Versions: 1 2 3 4 5 6 7 8 9 10 11 12 13 14 15 16 17 18 19 20 21
000
FTUS41 KCLE 261200 AAB
TAFTOL
TAF AMD
KTOL 261250Z 2613/2712 VRB03KT 1/4SM -SN FG OVC004
     FM261315 32002KT 1SM -SN BR OVC006
     FM261400 32002KT 2SM -SN BR OVC006
     FM261500 31005KT 3SM BR VCSH OVC012
     FM261800 30010KT P6SM OVC025
     FM262000 28010G15KT P6SM BKN045
     FM270200 30010KT P6SM BKN250=

USA.gov is the U.S. government's official web portal to all federal, state and local government web resources and services.